createdAt,value
2022-08-02T00:01:25.290Z,5.35
2022-08-02T00:06:28.711Z,3.20
2022-08-02T00:11:31.959Z,6.68
2022-08-02T00:16:37.504Z,3.53
2022-08-02T00:21:41.589Z,2.63
2022-08-02T00:26:44.535Z,4.18
2022-08-02T00:31:49.021Z,3.42
2022-08-02T00:36:52.199Z,3.38
2022-08-02T00:41:55.261Z,5.70
2022-08-02T00:46:59.659Z,2.63
2022-08-02T00:52:02.778Z,3.25
2022-08-02T00:57:06.063Z,2.63
2022-08-02T01:02:10.805Z,3.47
2022-08-02T01:07:14.694Z,5.03
2022-08-02T01:12:17.959Z,5.05
2022-08-02T01:17:30.552Z,3.92
2022-08-02T01:23:02.317Z,2.70
2022-08-02T01:28:29.495Z,3.97
2022-08-02T01:33:41.009Z,2.92
2022-08-02T01:38:48.418Z,3.35
2022-08-02T01:43:59.918Z,2.78
2022-08-02T01:49:09.426Z,4.13
2022-08-02T01:54:15.496Z,2.15
2022-08-02T01:59:23.709Z,5.75
2022-08-02T02:04:29.406Z,2.95
2022-08-02T02:09:37.272Z,3.80
2022-08-02T02:14:56.809Z,2.40
2022-08-02T02:20:02.855Z,1.75
2022-08-02T02:25:07.453Z,2.67
2022-08-02T02:30:17.617Z,8.15
2022-08-02T02:35:22.858Z,1.38
2022-08-02T02:40:28.624Z,3.15
2022-08-02T02:45:34.505Z,3.17
2022-08-02T02:50:38.089Z,3.80
2022-08-02T02:56:02.197Z,4.20
2022-08-02T03:01:55.929Z,4.00
2022-08-02T03:06:48.018Z,2.75
2022-08-02T03:11:51.730Z,4.57
2022-08-02T03:16:56.108Z,2.53
2022-08-02T03:21:59.190Z,3.45
2022-08-02T03:27:03.074Z,4.20
2022-08-02T03:32:08.108Z,3.97
2022-08-02T03:37:11.522Z,3.92
2022-08-02T03:42:15.750Z,2.40
2022-08-02T03:47:21.089Z,4.22
2022-08-02T03:52:25.577Z,4.18
2022-08-02T03:57:28.885Z,3.88
2022-08-02T04:02:33.195Z,5.32
2022-08-02T04:08:02.643Z,4.47
2022-08-02T04:13:00.025Z,3.13
2022-08-02T04:18:04.927Z,5.65
2022-08-02T04:23:09.230Z,3.42
2022-08-02T04:28:16.871Z,5.53
2022-08-02T04:33:22.985Z,5.57
2022-08-02T04:38:26.680Z,2.42
2022-08-02T04:43:29.873Z,2.92
2022-08-02T04:48:34.823Z,5.43
2022-08-02T04:53:37.958Z,5.13
2022-08-02T04:58:41.304Z,3.33
2022-08-02T05:03:46.811Z,4.43
2022-08-02T05:08:52.767Z,3.17
2022-08-02T05:13:58.105Z,5.80
2022-08-02T05:19:04.303Z,4.75
2022-08-02T05:24:08.575Z,4.22
2022-08-02T05:29:11.542Z,6.38
2022-08-02T05:34:16.264Z,6.53
2022-08-02T05:39:19.816Z,5.13
2022-08-02T05:44:23.823Z,5.50
2022-08-02T05:49:28.434Z,3.67
2022-08-02T05:54:44.120Z,4.97
2022-08-02T05:59:55.646Z,6.53
2022-08-02T06:05:05.552Z,6.72
2022-08-02T06:10:10.259Z,8.20
2022-08-02T06:15:15.675Z,6.80
2022-08-02T06:20:21.778Z,7.75
2022-08-02T06:25:50.452Z,6.53
2022-08-02T06:30:48.227Z,11.27
2022-08-02T06:36:01.904Z,11.90
2022-08-02T06:41:08.355Z,10.68
2022-08-02T06:46:34.062Z,13.35
2022-08-02T06:51:38.420Z,9.15
2022-08-02T06:56:41.906Z,13.50
2022-08-02T07:01:45.570Z,10.45
2022-08-02T07:06:50.333Z,9.95
2022-08-02T07:11:53.576Z,10.93
2022-08-02T07:16:56.880Z,9.10
2022-08-02T07:22:02.458Z,10.18
2022-08-02T07:27:13.253Z,10.68
2022-08-02T07:32:18.033Z,10.35
2022-08-02T07:37:36.022Z,15.52
2022-08-02T07:42:47.347Z,15.00
2022-08-02T07:47:51.816Z,9.75
2022-08-02T07:52:57.585Z,8.50
2022-08-02T07:58:01.487Z,9.50
2022-08-02T08:03:04.765Z,8.65
2022-08-02T08:08:13.823Z,9.30
2022-08-02T08:13:20.230Z,9.68
2022-08-02T08:18:24.146Z,8.45
2022-08-02T08:23:30.995Z,9.40
2022-08-02T08:28:35.605Z,8.82
2022-08-02T08:33:38.960Z,11.52
2022-08-02T08:38:43.528Z,8.05
2022-08-02T08:43:52.868Z,6.57
2022-08-02T08:49:07.446Z,8.15
2022-08-02T08:54:17.250Z,8.90
2022-08-02T08:59:20.717Z,5.53
2022-08-02T09:04:24.491Z,6.78
2022-08-02T09:09:29.108Z,7.47
2022-08-02T09:14:32.857Z,6.70
2022-08-02T09:19:37.077Z,6.57
2022-08-02T09:24:47.303Z,11.07
2022-08-02T09:30:11.994Z,7.63
2022-08-02T09:36:06.503Z,4.47
2022-08-02T09:41:00.561Z,4.15
2022-08-02T09:46:11.961Z,3.10
2022-08-02T09:51:20.324Z,3.65
2022-08-02T09:56:35.217Z,1.85
2022-08-02T10:01:40.302Z,3.08
2022-08-02T10:06:55.127Z,3.22
2022-08-02T10:12:01.366Z,2.42
2022-08-02T10:17:06.084Z,3.13
2022-08-02T10:22:12.979Z,2.10
2022-08-02T10:27:20.403Z,2.75
2022-08-02T10:32:29.948Z,2.03
2022-08-02T10:37:37.440Z,2.75
2022-08-02T10:42:49.817Z,1.58
2022-08-02T10:48:04.196Z,2.88
2022-08-02T10:53:28.069Z,1.92
2022-08-02T10:58:33.818Z,2.97
2022-08-02T11:03:42.428Z,1.52
2022-08-02T11:08:45.468Z,2.53
2022-08-02T11:14:04.058Z,1.10
2022-08-02T11:19:07.300Z,6.75
2022-08-02T11:24:29.042Z,3.30
2022-08-02T11:29:42.004Z,2.53
2022-08-02T11:34:49.266Z,3.78
2022-08-02T11:39:53.009Z,2.03
2022-08-02T11:44:57.520Z,3.38
2022-08-02T11:50:11.541Z,3.33
2022-08-02T11:55:14.869Z,3.35
2022-08-02T12:00:20.371Z,1.30
2022-08-02T12:05:51.335Z,1.63
2022-08-02T12:10:49.412Z,2.60
2022-08-02T12:15:54.357Z,0.60
2022-08-02T12:20:58.312Z,2.70
2022-08-02T12:26:02.336Z,3.63
2022-08-02T12:31:08.513Z,3.25
2022-08-02T12:36:17.101Z,3.28
2022-08-02T12:41:30.804Z,4.10
2022-08-02T12:46:42.053Z,1.58
2022-08-02T12:51:55.900Z,1.38
2022-08-02T12:57:12.675Z,6.43
2022-08-02T13:02:18.180Z,3.13
2022-08-02T13:07:21.556Z,3.70
2022-08-02T13:12:24.923Z,2.75
2022-08-02T13:17:29.511Z,6.07
2022-08-02T13:22:32.898Z,2.65
2022-08-02T13:27:38.249Z,4.57
2022-08-02T13:32:42.781Z,2.40
2022-08-02T13:37:47.740Z,4.05
2022-08-02T13:42:50.918Z,5.65
2022-08-02T13:48:03.900Z,5.03
2022-08-02T13:53:08.857Z,3.17
2022-08-02T13:58:12.253Z,4.55
2022-08-02T14:03:16.922Z,7.95
2022-08-02T14:08:22.524Z,1.48
2022-08-02T14:13:25.782Z,4.00
2022-08-02T14:18:30.417Z,5.57
2022-08-02T14:23:49.925Z,2.08
2022-08-02T14:28:54.380Z,2.45
2022-08-02T14:33:58.888Z,5.68
2022-08-02T14:39:02.296Z,4.60
2022-08-02T14:44:06.173Z,3.55
2022-08-02T14:49:14.629Z,3.05
2022-08-02T14:54:31.517Z,6.97
2022-08-02T14:59:34.846Z,4.78
2022-08-02T15:04:42.488Z,5.40
2022-08-02T15:09:46.542Z,2.42
2022-08-02T15:14:49.580Z,2.42
2022-08-02T15:19:58.187Z,3.28
2022-08-02T15:25:04.495Z,3.75
2022-08-02T15:30:17.992Z,5.45
2022-08-02T15:35:22.868Z,4.97
2022-08-02T15:40:27.623Z,5.50
2022-08-02T15:45:30.826Z,2.03
2022-08-02T15:50:35.217Z,4.18
2022-08-02T15:55:40.113Z,5.28
2022-08-02T16:00:56.396Z,4.13
2022-08-02T16:06:00.806Z,4.68
2022-08-02T16:11:03.799Z,5.53
2022-08-02T16:16:07.024Z,4.63
2022-08-02T16:21:11.647Z,4.68
2022-08-02T16:26:14.956Z,3.53
2022-08-02T16:31:18.817Z,9.52
2022-08-02T16:36:23.714Z,3.72
2022-08-02T16:41:50.937Z,6.78
2022-08-02T16:46:50.791Z,3.72
2022-08-02T16:51:56.155Z,3.45
2022-08-02T16:56:59.521Z,6.03
2022-08-02T17:02:11.381Z,8.02
2022-08-02T17:08:06.162Z,6.13
2022-08-02T17:12:40.552Z,3.92
2022-08-02T17:17:43.695Z,6.75
2022-08-02T17:22:50.705Z,4.65
2022-08-02T17:27:55.887Z,5.00
2022-08-02T17:32:59.682Z,4.07
2022-08-02T17:38:05.399Z,5.63
2022-08-02T17:43:14.780Z,6.97
2022-08-02T17:48:19.917Z,6.40
2022-08-02T17:53:36.276Z,8.10
2022-08-02T17:58:39.520Z,4.40
2022-08-02T18:03:55.209Z,4.25
2022-08-02T18:08:59.601Z,7.10
2022-08-02T18:14:04.070Z,6.78
2022-08-02T18:19:16.843Z,4.32
2022-08-02T18:24:24.113Z,4.38
2022-08-02T18:29:30.173Z,9.20
2022-08-02T18:34:44.373Z,4.30
2022-08-02T18:39:52.266Z,6.55
2022-08-02T18:44:55.417Z,3.97
2022-08-02T18:50:00.007Z,5.55
2022-08-02T19:00:28.160Z,5.93
2022-08-02T19:05:53.230Z,6.30
2022-08-02T19:10:57.433Z,8.05
2022-08-02T19:16:06.263Z,7.35
2022-08-02T19:21:09.436Z,4.70
2022-08-02T19:26:14.285Z,5.57
2022-08-02T19:31:18.175Z,5.43
2022-08-02T19:36:22.389Z,10.40
2022-08-02T19:41:43.920Z,6.88
2022-08-02T19:46:49.119Z,10.90
2022-08-02T19:57:19.397Z,7.30
2022-08-02T20:02:22.813Z,4.13
2022-08-02T20:07:54.316Z,7.32
2022-08-02T20:12:50.703Z,7.72
2022-08-02T20:17:53.857Z,6.88
2022-08-02T20:23:33.134Z,6.97
2022-08-02T20:28:38.874Z,5.03
2022-08-02T20:33:55.397Z,6.40
2022-08-02T20:38:59.650Z,3.85
2022-08-02T20:44:04.627Z,5.95
2022-08-02T20:49:25.216Z,5.03
2022-08-02T20:54:41.648Z,6.20
2022-08-02T20:59:51.242Z,4.20
2022-08-02T21:04:55.374Z,6.22
2022-08-02T21:09:58.770Z,6.57
2022-08-02T21:15:03.390Z,5.60
2022-08-02T21:20:07.153Z,6.43
2022-08-02T21:25:10.960Z,7.63
2022-08-02T21:30:20.814Z,3.17
2022-08-02T21:35:28.346Z,3.97
2022-08-02T21:40:32.561Z,2.53
2022-08-02T21:45:38.024Z,4.30
2022-08-02T21:50:56.925Z,4.32
2022-08-02T21:56:00.903Z,5.63
2022-08-02T22:01:07.311Z,6.60
2022-08-02T22:06:10.498Z,3.75
2022-08-02T22:11:17.249Z,3.00
2022-08-02T22:16:38.486Z,4.88
2022-08-02T22:21:54.593Z,4.28
2022-08-02T22:26:59.168Z,8.00
2022-08-02T22:32:04.152Z,7.13
2022-08-02T22:37:07.753Z,4.70
2022-08-02T22:42:30.465Z,5.40
2022-08-02T22:47:38.905Z,3.88
2022-08-02T22:52:54.566Z,5.75
2022-08-02T22:57:58.280Z,8.07
2022-08-02T22:58:46.032Z,6.00
2022-08-02T22:59:07.626Z,4.80
2022-08-02T23:03:02.857Z,8.63
2022-08-02T23:08:06.625Z,7.15
2022-08-02T23:13:09.893Z,5.32
2022-08-02T23:18:31.720Z,7.97
2022-08-02T23:23:34.690Z,4.95
2022-08-02T23:28:37.687Z,6.75
2022-08-02T23:34:03.850Z,6.15
2022-08-02T23:39:05.529Z,4.70
2022-08-02T23:44:14.167Z,6.15
2022-08-02T23:49:19.767Z,3.83
2022-08-02T23:54:22.802Z,4.70
2022-08-02T23:59:26.322Z,4.85
